CEB4771 RPVA-RPMD
Flight info
| Callsign | CEB4771 |
|---|---|
| Flight time | 0h 46m |
| Altitude | 31000 |
| Route | BANWA5N BANWA W9 RIMAR RIMAR2R |
| Aircraft | A320/M-SDE3FGHIRWY/LB1 |
Departure
| Time | 2026-04-21 23:08 |
|---|---|
| Airport | Daniel Z. Romualdez Airport (RPVA) |
Arrival
| Time | 2026-04-21 23:54 |
|---|---|
| Airport | Francisco Bangoy International Airport (RPMD) |
| Time | Latitude | Longitude | Altitude | Speed | Heading |
|---|---|---|---|---|---|
| 2026-04-21 22:38 | 11.22684 | 125.02653 | 15 ft | 0 kts | 308° |
| 2026-04-21 23:04 | 11.22688 | 125.02653 | 14 ft | 2 kts | 341° |
| 2026-04-21 23:04 | 11.22692 | 125.02670 | 19 ft | 2 kts | 123° |
| 2026-04-21 23:04 | 11.22652 | 125.02686 | 14 ft | 7 kts | 172° |
| 2026-04-21 23:05 | 11.22606 | 125.02685 | 14 ft | 6 kts | 174° |
| 2026-04-21 23:05 | 11.22564 | 125.02726 | 18 ft | 11 kts | 113° |
| 2026-04-21 23:05 | 11.22506 | 125.02757 | 15 ft | 14 kts | 181° |
| 2026-04-21 23:05 | 11.22387 | 125.02750 | 15 ft | 19 kts | 184° |
| 2026-04-21 23:06 | 11.22252 | 125.02741 | 15 ft | 20 kts | 184° |
| 2026-04-21 23:06 | 11.22109 | 125.02732 | 15 ft | 21 kts | 184° |
| 2026-04-21 23:06 | 11.21957 | 125.02722 | 14 ft | 23 kts | 184° |
| 2026-04-21 23:06 | 11.21853 | 125.02733 | 13 ft | 11 kts | 149° |
| 2026-04-21 23:07 | 11.21820 | 125.02715 | 13 ft | 6 kts | 313° |
| 2026-04-21 23:07 | 11.21845 | 125.02714 | 12 ft | 2 kts | 4° |
| 2026-04-21 23:07 | 11.21939 | 125.02721 | 14 ft | 44 kts | 4° |
| 2026-04-21 23:07 | 11.22506 | 125.02758 | 16 ft | 115 kts | 4° |
| 2026-04-21 23:08 | 11.23488 | 125.02822 | 94 ft | 160 kts | 4° |
| 2026-04-21 23:08 | 11.24573 | 125.02887 | 812 ft | 155 kts | 5° |
| 2026-04-21 23:08 | 11.25624 | 125.03054 | 1495 ft | 152 kts | 31° |
| 2026-04-21 23:08 | 11.26356 | 125.03798 | 2049 ft | 156 kts | 64° |
| 2026-04-21 23:09 | 11.26535 | 125.04946 | 2342 ft | 180 kts | 99° |
| 2026-04-21 23:09 | 11.25847 | 125.06103 | 2632 ft | 213 kts | 140° |
| 2026-04-21 23:09 | 11.24465 | 125.06883 | 3035 ft | 240 kts | 150° |
| 2026-04-21 23:09 | 11.22897 | 125.07619 | 3541 ft | 259 kts | 152° |
| 2026-04-21 23:10 | 11.21217 | 125.08366 | 4379 ft | 266 kts | 153° |
| 2026-04-21 23:10 | 11.19513 | 125.09118 | 5267 ft | 269 kts | 154° |
| 2026-04-21 23:10 | 11.17788 | 125.09888 | 6133 ft | 273 kts | 154° |
| 2026-04-21 23:10 | 11.16036 | 125.10681 | 6935 ft | 277 kts | 155° |
| 2026-04-21 23:11 | 11.14262 | 125.11487 | 7736 ft | 281 kts | 156° |
| 2026-04-21 23:11 | 11.12378 | 125.12080 | 8480 ft | 288 kts | 171° |
| 2026-04-21 23:11 | 11.10363 | 125.12147 | 9245 ft | 292 kts | 184° |
| 2026-04-21 23:11 | 11.08320 | 125.12000 | 9997 ft | 296 kts | 184° |
| 2026-04-21 23:12 | 11.06210 | 125.11854 | 10406 ft | 314 kts | 185° |
| 2026-04-21 23:12 | 11.03950 | 125.11699 | 10645 ft | 335 kts | 184° |
| 2026-04-21 23:12 | 11.01591 | 125.11546 | 11201 ft | 343 kts | 185° |
| 2026-04-21 23:12 | 10.99200 | 125.11439 | 11886 ft | 346 kts | 183° |
| 2026-04-21 23:13 | 10.96782 | 125.11365 | 12561 ft | 349 kts | 183° |
| 2026-04-21 23:13 | 10.94338 | 125.11305 | 13227 ft | 353 kts | 183° |
| 2026-04-21 23:13 | 10.91880 | 125.11244 | 13855 ft | 356 kts | 183° |
| 2026-04-21 23:13 | 10.89387 | 125.11177 | 14404 ft | 359 kts | 183° |
| 2026-04-21 23:14 | 10.86880 | 125.11102 | 14939 ft | 362 kts | 183° |
| 2026-04-21 23:14 | 10.84348 | 125.11021 | 15486 ft | 366 kts | 183° |
| 2026-04-21 23:14 | 10.81790 | 125.11069 | 16004 ft | 371 kts | 175° |
| 2026-04-21 23:14 | 10.79231 | 125.11540 | 16530 ft | 375 kts | 170° |
| 2026-04-21 23:15 | 10.76655 | 125.12070 | 17053 ft | 379 kts | 170° |
| 2026-04-21 23:15 | 10.74088 | 125.12591 | 17557 ft | 383 kts | 170° |
| 2026-04-21 23:15 | 10.71431 | 125.13127 | 18071 ft | 386 kts | 170° |
| 2026-04-21 23:15 | 10.68815 | 125.13653 | 18515 ft | 389 kts | 170° |
| 2026-04-21 23:16 | 10.66148 | 125.14187 | 18958 ft | 392 kts | 169° |
| 2026-04-21 23:16 | 10.63423 | 125.14735 | 19416 ft | 395 kts | 169° |
| 2026-04-21 23:16 | 10.60759 | 125.15275 | 19856 ft | 397 kts | 170° |
| 2026-04-21 23:16 | 10.58037 | 125.15828 | 20300 ft | 400 kts | 169° |
| 2026-04-21 23:17 | 10.55303 | 125.16381 | 20739 ft | 402 kts | 169° |
| 2026-04-21 23:17 | 10.52551 | 125.16936 | 21177 ft | 404 kts | 169° |
| 2026-04-21 23:17 | 10.49785 | 125.17493 | 21600 ft | 407 kts | 169° |
| 2026-04-21 23:17 | 10.47000 | 125.18056 | 22035 ft | 409 kts | 168° |
| 2026-04-21 23:18 | 10.44206 | 125.18624 | 22469 ft | 411 kts | 168° |
| 2026-04-21 23:18 | 10.41389 | 125.19198 | 22870 ft | 413 kts | 168° |
| 2026-04-21 23:18 | 10.38561 | 125.19773 | 23279 ft | 416 kts | 168° |
| 2026-04-21 23:18 | 10.35716 | 125.20349 | 23655 ft | 418 kts | 168° |
| 2026-04-21 23:19 | 10.32856 | 125.20927 | 24014 ft | 419 kts | 168° |
| 2026-04-21 23:19 | 10.29989 | 125.21506 | 24362 ft | 421 kts | 168° |
| 2026-04-21 23:19 | 10.27111 | 125.22086 | 24709 ft | 423 kts | 168° |
| 2026-04-21 23:19 | 10.24216 | 125.22667 | 25058 ft | 424 kts | 168° |
| 2026-04-21 23:20 | 10.21316 | 125.23250 | 25401 ft | 426 kts | 168° |
| 2026-04-21 23:20 | 10.18401 | 125.23837 | 25724 ft | 428 kts | 168° |
| 2026-04-21 23:20 | 10.15476 | 125.24429 | 26070 ft | 429 kts | 168° |
| 2026-04-21 23:20 | 10.12540 | 125.25024 | 26370 ft | 432 kts | 168° |
| 2026-04-21 23:21 | 10.09579 | 125.25621 | 26665 ft | 434 kts | 168° |
| 2026-04-21 23:21 | 10.06612 | 125.26218 | 27000 ft | 435 kts | 168° |
| 2026-04-21 23:21 | 10.03643 | 125.26818 | 27335 ft | 436 kts | 168° |
| 2026-04-21 23:21 | 10.00665 | 125.27420 | 27677 ft | 437 kts | 169° |
| 2026-04-21 23:22 | 9.97669 | 125.28026 | 27912 ft | 441 kts | 169° |
| 2026-04-21 23:22 | 9.94650 | 125.28634 | 28240 ft | 442 kts | 169° |
| 2026-04-21 23:22 | 9.91662 | 125.29235 | 28521 ft | 444 kts | 169° |
| 2026-04-21 23:22 | 9.88582 | 125.29853 | 28813 ft | 446 kts | 169° |
| 2026-04-21 23:23 | 9.85525 | 125.30467 | 29109 ft | 448 kts | 169° |
| 2026-04-21 23:23 | 9.82501 | 125.31075 | 29391 ft | 450 kts | 169° |
| 2026-04-21 23:23 | 9.79397 | 125.31701 | 29787 ft | 449 kts | 169° |
| 2026-04-21 23:23 | 9.76370 | 125.32308 | 30050 ft | 450 kts | 169° |
| 2026-04-21 23:24 | 9.73288 | 125.32925 | 30228 ft | 453 kts | 169° |
| 2026-04-21 23:24 | 9.70180 | 125.33548 | 30404 ft | 456 kts | 169° |
| 2026-04-21 23:24 | 9.67064 | 125.34176 | 30643 ft | 457 kts | 169° |
| 2026-04-21 23:24 | 9.63939 | 125.34804 | 30848 ft | 458 kts | 169° |
| 2026-04-21 23:25 | 9.57789 | 125.36027 | 30945 ft | 438 kts | 170° |
| 2026-04-21 23:25 | 9.51858 | 125.37197 | 30946 ft | 433 kts | 169° |
| 2026-04-21 23:26 | 9.45949 | 125.38363 | 30945 ft | 432 kts | 169° |
| 2026-04-21 23:26 | 9.40049 | 125.39526 | 30946 ft | 431 kts | 170° |
| 2026-04-21 23:27 | 9.34139 | 125.40694 | 30942 ft | 434 kts | 169° |
| 2026-04-21 23:27 | 9.28211 | 125.41866 | 30946 ft | 434 kts | 170° |
| 2026-04-21 23:28 | 9.22328 | 125.43031 | 30947 ft | 433 kts | 169° |
| 2026-04-21 23:28 | 9.16408 | 125.44195 | 30943 ft | 434 kts | 169° |
| 2026-04-21 23:29 | 9.10477 | 125.45359 | 30951 ft | 434 kts | 169° |
| 2026-04-21 23:29 | 9.04560 | 125.46530 | 30949 ft | 433 kts | 169° |
| 2026-04-21 23:30 | 8.98642 | 125.47698 | 30943 ft | 433 kts | 169° |
| 2026-04-21 23:30 | 8.92689 | 125.48636 | 30943 ft | 432 kts | 174° |
| 2026-04-21 23:31 | 8.86706 | 125.49242 | 30942 ft | 432 kts | 174° |
| 2026-04-21 23:31 | 8.80723 | 125.49850 | 30940 ft | 432 kts | 174° |
| 2026-04-21 23:32 | 8.74744 | 125.50456 | 30950 ft | 431 kts | 174° |
| 2026-04-21 23:32 | 8.69789 | 125.50958 | 30947 ft | 431 kts | 174° |
| 2026-04-21 23:33 | 8.63822 | 125.51565 | 30952 ft | 430 kts | 174° |
| 2026-04-21 23:33 | 8.56853 | 125.52274 | 30944 ft | 431 kts | 174° |
| 2026-04-21 23:34 | 8.51885 | 125.52775 | 30943 ft | 431 kts | 174° |
| 2026-04-21 23:34 | 8.45903 | 125.53334 | 30959 ft | 436 kts | 175° |
| 2026-04-21 23:35 | 8.39730 | 125.53863 | 30969 ft | 453 kts | 175° |
| 2026-04-21 23:35 | 8.33410 | 125.54413 | 30517 ft | 450 kts | 175° |
| 2026-04-21 23:36 | 8.30316 | 125.54692 | 29500 ft | 443 kts | 174° |
| 2026-04-21 23:36 | 8.27269 | 125.54969 | 28445 ft | 437 kts | 174° |
| 2026-04-21 23:36 | 8.24266 | 125.55240 | 27424 ft | 430 kts | 174° |
| 2026-04-21 23:36 | 8.21298 | 125.55509 | 26442 ft | 425 kts | 174° |
| 2026-04-21 23:37 | 8.18381 | 125.55774 | 25710 ft | 414 kts | 174° |
| 2026-04-21 23:37 | 8.15576 | 125.56024 | 25283 ft | 397 kts | 174° |
| 2026-04-21 23:37 | 8.12875 | 125.56265 | 24824 ft | 383 kts | 174° |
| 2026-04-21 23:37 | 8.10262 | 125.56498 | 24377 ft | 381 kts | 173° |
| 2026-04-21 23:38 | 8.07619 | 125.56734 | 23924 ft | 380 kts | 173° |
| 2026-04-21 23:38 | 8.04985 | 125.56970 | 23448 ft | 380 kts | 173° |
| 2026-04-21 23:38 | 8.02359 | 125.57206 | 22924 ft | 378 kts | 173° |
| 2026-04-21 23:38 | 7.99744 | 125.57442 | 22453 ft | 376 kts | 173° |
| 2026-04-21 23:39 | 7.97133 | 125.57476 | 21707 ft | 378 kts | 186° |
| 2026-04-21 23:39 | 7.94541 | 125.57131 | 21086 ft | 372 kts | 186° |
| 2026-04-21 23:39 | 7.91981 | 125.56784 | 20614 ft | 371 kts | 187° |
| 2026-04-21 23:39 | 7.89427 | 125.56436 | 20141 ft | 370 kts | 187° |
| 2026-04-21 23:40 | 7.86875 | 125.56086 | 19661 ft | 370 kts | 187° |
| 2026-04-21 23:40 | 7.84320 | 125.55734 | 19189 ft | 370 kts | 187° |
| 2026-04-21 23:40 | 7.81770 | 125.55385 | 18721 ft | 370 kts | 188° |
| 2026-04-21 23:40 | 7.79221 | 125.55036 | 18258 ft | 370 kts | 188° |
| 2026-04-21 23:41 | 7.76672 | 125.54687 | 17736 ft | 369 kts | 188° |
| 2026-04-21 23:41 | 7.74126 | 125.54338 | 17270 ft | 367 kts | 188° |
| 2026-04-21 23:41 | 7.71604 | 125.53993 | 16817 ft | 365 kts | 188° |
| 2026-04-21 23:41 | 7.69093 | 125.53646 | 16365 ft | 363 kts | 188° |
| 2026-04-21 23:42 | 7.66600 | 125.53301 | 15914 ft | 361 kts | 188° |
| 2026-04-21 23:42 | 7.64119 | 125.52961 | 15472 ft | 359 kts | 188° |
| 2026-04-21 23:42 | 7.61651 | 125.52623 | 15023 ft | 357 kts | 188° |
| 2026-04-21 23:42 | 7.59195 | 125.52288 | 14571 ft | 355 kts | 188° |
| 2026-04-21 23:43 | 7.56751 | 125.51955 | 14140 ft | 354 kts | 188° |
| 2026-04-21 23:43 | 7.54317 | 125.51621 | 13735 ft | 351 kts | 188° |
| 2026-04-21 23:43 | 7.51898 | 125.51287 | 13217 ft | 350 kts | 188° |
| 2026-04-21 23:43 | 7.49501 | 125.50958 | 12778 ft | 347 kts | 188° |
| 2026-04-21 23:44 | 7.47119 | 125.50630 | 12358 ft | 344 kts | 188° |
| 2026-04-21 23:44 | 7.44751 | 125.50304 | 11870 ft | 343 kts | 187° |
| 2026-04-21 23:44 | 7.42396 | 125.49979 | 11422 ft | 341 kts | 187° |
| 2026-04-21 23:44 | 7.40048 | 125.49655 | 10968 ft | 339 kts | 187° |
| 2026-04-21 23:45 | 7.37720 | 125.49334 | 10553 ft | 336 kts | 187° |
| 2026-04-21 23:45 | 7.33179 | 125.48713 | 10040 ft | 321 kts | 187° |
| 2026-04-21 23:45 | 7.31004 | 125.48417 | 9923 ft | 310 kts | 187° |
| 2026-04-21 23:46 | 7.28908 | 125.48131 | 9605 ft | 299 kts | 187° |
| 2026-04-21 23:46 | 7.26860 | 125.47850 | 9013 ft | 295 kts | 186° |
| 2026-04-21 23:46 | 7.24836 | 125.47572 | 8585 ft | 294 kts | 186° |
| 2026-04-21 23:46 | 7.22813 | 125.47295 | 8185 ft | 293 kts | 186° |
| 2026-04-21 23:47 | 7.20791 | 125.47018 | 7788 ft | 293 kts | 186° |
| 2026-04-21 23:47 | 7.18777 | 125.46740 | 7397 ft | 291 kts | 186° |
| 2026-04-21 23:47 | 7.16775 | 125.46465 | 7024 ft | 290 kts | 186° |
| 2026-04-21 23:47 | 7.14773 | 125.46191 | 6618 ft | 290 kts | 186° |
| 2026-04-21 23:48 | 7.12776 | 125.45920 | 6216 ft | 288 kts | 186° |
| 2026-04-21 23:48 | 7.10833 | 125.45655 | 5819 ft | 275 kts | 186° |
| 2026-04-21 23:48 | 7.08974 | 125.45402 | 5460 ft | 264 kts | 185° |
| 2026-04-21 23:48 | 7.07203 | 125.45477 | 5124 ft | 249 kts | 163° |
| 2026-04-21 23:49 | 7.05660 | 125.46164 | 4776 ft | 239 kts | 142° |
| 2026-04-21 23:49 | 7.04404 | 125.47214 | 4424 ft | 231 kts | 137° |
| 2026-04-21 23:49 | 7.03194 | 125.48257 | 4094 ft | 227 kts | 137° |
| 2026-04-21 23:49 | 7.02011 | 125.49287 | 3770 ft | 222 kts | 132° |
| 2026-04-21 23:50 | 7.01285 | 125.50591 | 3464 ft | 214 kts | 94° |
| 2026-04-21 23:50 | 7.01632 | 125.51979 | 3157 ft | 206 kts | 54° |
| 2026-04-21 23:50 | 7.02513 | 125.53047 | 2897 ft | 194 kts | 50° |
| 2026-04-21 23:50 | 7.03394 | 125.54050 | 2633 ft | 182 kts | 49° |
| 2026-04-21 23:51 | 7.04181 | 125.54940 | 2386 ft | 162 kts | 48° |
| 2026-04-21 23:51 | 7.04889 | 125.55746 | 2129 ft | 148 kts | 48° |
| 2026-04-21 23:51 | 7.05552 | 125.56505 | 1943 ft | 140 kts | 47° |
| 2026-04-21 23:51 | 7.06193 | 125.57242 | 1747 ft | 138 kts | 47° |
| 2026-04-21 23:52 | 7.06819 | 125.57964 | 1554 ft | 136 kts | 46° |
| 2026-04-21 23:52 | 7.07444 | 125.58684 | 1378 ft | 136 kts | 47° |
| 2026-04-21 23:52 | 7.08064 | 125.59398 | 1198 ft | 136 kts | 45° |
| 2026-04-21 23:52 | 7.08693 | 125.60120 | 1010 ft | 136 kts | 44° |
| 2026-04-21 23:53 | 7.09317 | 125.60837 | 815 ft | 138 kts | 45° |
| 2026-04-21 23:53 | 7.09952 | 125.61564 | 673 ft | 139 kts | 45° |
| 2026-04-21 23:53 | 7.10579 | 125.62287 | 450 ft | 136 kts | 48° |
| 2026-04-21 23:53 | 7.11209 | 125.63010 | 272 ft | 137 kts | 45° |
| 2026-04-21 23:54 | 7.11830 | 125.63731 | 123 ft | 135 kts | 45° |
| 2026-04-21 23:54 | 7.12376 | 125.64368 | 100 ft | 97 kts | 49° |
| 2026-04-21 23:54 | 7.12707 | 125.64753 | 101 ft | 48 kts | 49° |
| 2026-04-21 23:54 | 7.12816 | 125.64881 | 102 ft | 9 kts | 49° |
| 2026-04-21 23:55 | 7.12866 | 125.64913 | 102 ft | 9 kts | 6° |
| 2026-04-21 23:55 | 7.12924 | 125.64878 | 102 ft | 12 kts | 319° |
| 2026-04-21 23:55 | 7.12992 | 125.64820 | 101 ft | 11 kts | 320° |
| 2026-04-21 23:55 | 7.12999 | 125.64749 | 101 ft | 11 kts | 233° |
| 2026-04-21 23:56 | 7.12949 | 125.64693 | 101 ft | 10 kts | 229° |
| 2026-04-21 23:56 | 7.12905 | 125.64641 | 101 ft | 9 kts | 229° |
| 2026-04-21 23:56 | 7.12865 | 125.64594 | 101 ft | 8 kts | 229° |
| 2026-04-21 23:56 | 7.12829 | 125.64552 | 101 ft | 7 kts | 229° |
| 2026-04-21 23:57 | 7.12826 | 125.64514 | 101 ft | 5 kts | 297° |
| 2026-04-21 23:57 | 7.12848 | 125.64492 | 101 ft | 4 kts | 319° |
| 2026-04-21 23:57 | 7.12865 | 125.64477 | 101 ft | 3 kts | 320° |
| 2026-04-21 23:57 | 7.12877 | 125.64468 | 101 ft | 2 kts | 320° |
| 2026-04-21 23:58 | 7.12882 | 125.64463 | 100 ft | 1 kts | 320° |
| 2026-04-21 23:58 | 7.12884 | 125.64461 | 101 ft | 0 kts | 320° |
| 2026-04-22 00:17 | 7.12874 | 125.64470 | 100 ft | 4 kts | 322° |
| 2026-04-22 00:17 | 7.12852 | 125.64486 | 100 ft | 4 kts | 326° |
| 2026-04-22 00:17 | 7.12829 | 125.64500 | 101 ft | 4 kts | 335° |
| 2026-04-22 00:18 | 7.12804 | 125.64508 | 101 ft | 4 kts | 1° |
| 2026-04-22 00:18 | 7.12787 | 125.64504 | 101 ft | 0 kts | 50° |
| 2026-04-22 00:18 | 7.12814 | 125.64536 | 101 ft | 7 kts | 50° |
| 2026-04-22 00:18 | 7.12845 | 125.64572 | 101 ft | 7 kts | 49° |
| 2026-04-22 00:19 | 7.12877 | 125.64607 | 101 ft | 7 kts | 46° |
| 2026-04-22 00:19 | 7.12911 | 125.64640 | 102 ft | 7 kts | 40° |
| 2026-04-22 00:19 | 7.12950 | 125.64666 | 102 ft | 7 kts | 24° |
| 2026-04-22 00:19 | 7.12995 | 125.64672 | 102 ft | 7 kts | 347° |
| 2026-04-22 00:20 | 7.13034 | 125.64649 | 102 ft | 6 kts | 321° |
| 2026-04-22 00:20 | 7.13036 | 125.64647 | 102 ft | 0 kts | 320° |